Time;durP1;ratioP1;P1;durP2;ratioP2;P2;SDS_P1;SDS_P2;PMS_P1;PMS_P2;Temp;Humidity;BMP_temperature;BMP_pressure;BME280_temperature;BME280_humidity;BME280_pressure;Samples;Min_cycle;Max_cycle;Signal;HPM_P1;HPM_P2
2022/05/29 00:00:10;;;;;;;6.65;2.42;;;9.40;99.90;;;;;;4978154;28;20058;-78
2022/05/29 00:02:36;;;;;;;4.68;2.25;;;9.40;99.90;;;;;;4979480;28;20082;-78
2022/05/29 00:05:02;;;;;;;4.03;2.15;;;9.50;99.90;;;;;;4998147;28;20053;-77
2022/05/29 00:07:28;;;;;;;7.07;2.13;;;9.40;99.90;;;;;;4997763;28;20039;-75
2022/05/29 00:09:54;;;;;;;7.32;2.60;;;9.40;99.90;;;;;;4981859;28;20077;-77
2022/05/29 00:12:22;;;;;;;10.15;2.60;;;9.40;99.90;;;;;;4997881;28;20145;-75
2022/05/29 00:14:48;;;;;;;7.22;2.40;;;9.50;99.90;;;;;;4998390;28;20051;-78
2022/05/29 00:17:16;;;;;;;6.65;2.50;;;9.40;99.90;;;;;;4981468;28;20089;-74
2022/05/29 00:19:42;;;;;;;8.98;2.70;;;9.40;99.90;;;;;;4981610;28;20046;-76
2022/05/29 00:22:10;;;;;;;8.27;2.80;;;9.40;99.90;;;;;;4996904;28;20094;-75
2022/05/29 00:24:36;;;;;;;6.60;2.50;;;9.40;99.90;;;;;;4997970;28;20051;-75
2022/05/29 00:27:03;;;;;;;7.13;2.70;;;9.30;99.90;;;;;;4983028;28;20132;-76
2022/05/29 00:29:28;;;;;;;9.60;2.45;;;9.30;99.90;;;;;;4997778;28;20050;-76
2022/05/29 00:31:54;;;;;;;5.90;2.30;;;9.30;99.90;;;;;;4997647;28;20043;-75
2022/05/29 00:34:20;;;;;;;8.60;3.40;;;9.20;99.90;;;;;;4981054;28;20050;-75
2022/05/29 00:36:46;;;;;;;6.10;2.58;;;9.20;99.90;;;;;;4981418;28;20050;-75
2022/05/29 00:39:14;;;;;;;6.63;2.88;;;9.20;99.90;;;;;;4980976;28;20073;-75
2022/05/29 00:41:40;;;;;;;7.78;4.03;;;9.20;99.90;;;;;;4997713;28;20051;-76
2022/05/29 00:44:21;;;;;;;8.57;2.67;;;9.20;99.90;;;;;;4997597;28;20102;-76
2022/05/29 00:46:53;;;;;;;7.40;2.55;;;9.20;99.90;;;;;;4981190;28;20082;-78
2022/05/29 00:49:22;;;;;;;8.43;2.80;;;9.10;99.90;;;;;;4965248;28;20066;-75
2022/05/29 00:51:50;;;;;;;8.70;2.50;;;9.10;99.90;;;;;;4980722;28;20053;-75
2022/05/29 00:54:16;;;;;;;9.68;3.35;;;9.10;99.90;;;;;;4997591;28;20054;-75
2022/05/29 00:56:43;;;;;;;6.78;2.53;;;9.10;99.90;;;;;;4981170;28;20497;-74
2022/05/29 00:59:14;;;;;;;5.20;2.00;;;9.00;99.90;;;;;;4997167;28;20074;-75
2022/05/29 01:01:40;;;;;;;13.13;2.78;;;9.00;99.90;;;;;;4965568;28;20046;-76
2022/05/29 01:04:07;;;;;;;6.05;2.50;;;8.90;99.90;;;;;;4982081;28;20054;-76
2022/05/29 01:06:33;;;;;;;8.15;3.40;;;8.90;99.90;;;;;;4997437;28;20094;-77
2022/05/29 01:09:00;;;;;;;5.70;2.88;;;8.80;99.90;;;;;;4996849;28;20549;-77
2022/05/29 01:11:50;;;;;;;7.65;2.67;;;8.80;99.90;;;;;;4997511;28;20043;-77
2022/05/29 01:14:31;;;;;;;7.85;2.45;;;8.70;99.90;;;;;;4981193;28;20484;-77
2022/05/29 01:17:21;;;;;;;9.75;3.08;;;8.70;99.90;;;;;;4996926;28;20120;-77
2022/05/29 01:19:50;;;;;;;6.25;2.10;;;8.60;99.90;;;;;;4980724;28;20067;-78
2022/05/29 01:22:34;;;;;;;10.38;2.72;;;8.60;99.90;;;;;;4996335;28;20097;-75
2022/05/29 01:25:30;;;;;;;8.13;2.40;;;8.60;99.90;;;;;;4996761;28;20050;-75
2022/05/29 01:28:25;;;;;;;5.97;2.50;;;8.60;99.90;;;;;;4980667;28;20054;-77
2022/05/29 01:31:14;;;;;;;6.07;2.55;;;8.60;99.90;;;;;;4979340;28;20142;-75
2022/05/29 01:34:24;;;;;;;6.50;2.30;;;8.60;99.90;;;;;;4980437;28;20043;-80
2022/05/29 01:37:12;;;;;;;5.55;2.42;;;8.70;99.90;;;;;;4964622;28;20499;-77
2022/05/29 01:39:50;;;;;;;5.95;2.53;;;8.70;99.90;;;;;;4996572;28;20078;-77
2022/05/29 01:42:22;;;;;;;5.85;2.28;;;8.80;99.90;;;;;;4996223;28;20101;-75
2022/05/29 01:44:58;;;;;;;7.35;2.75;;;8.80;99.90;;;;;;4961474;29;20053;-78
2022/05/29 01:47:31;;;;;;;6.67;2.57;;;8.70;99.90;;;;;;4993080;28;20075;-78
2022/05/29 01:50:02;;;;;;;9.70;3.42;;;8.70;99.90;;;;;;4993004;28;20062;-77
2022/05/29 01:52:31;;;;;;;8.20;2.38;;;8.70;99.90;;;;;;4960496;29;20050;-75
2022/05/29 01:55:10;;;;;;;10.98;3.30;;;8.70;99.90;;;;;;4960526;29;20636;-76
2022/05/29 01:57:40;;;;;;;6.22;2.50;;;8.70;99.90;;;;;;4993286;28;20055;-77
2022/05/29 02:00:18;;;;;;;9.48;2.72;;;8.60;99.90;;;;;;4992600;28;20051;-75
2022/05/29 02:02:43;;;;;;;3.95;2.20;;;8.60;99.90;;;;;;4960934;29;20055;-78
2022/05/29 02:05:17;;;;;;;6.03;2.63;;;8.50;99.90;;;;;;4992748;28;20097;-79
2022/05/29 02:07:48;;;;;;;7.95;2.65;;;8.50;99.90;;;;;;4992998;28;20058;-75
2022/05/29 02:10:27;;;;;;;4.85;2.53;;;8.50;99.90;;;;;;4976659;28;20055;-75
2022/05/29 02:13:05;;;;;;;6.65;2.30;;;8.50;99.90;;;;;;4959881;29;20047;-77
2022/05/29 02:15:48;;;;;;;6.82;2.65;;;8.50;99.90;;;;;;4992745;28;20109;-74
2022/05/29 02:18:37;;;;;;;9.02;2.85;;;8.50;99.90;;;;;;4976518;28;20086;-74
2022/05/29 02:21:09;;;;;;;6.40;2.70;;;8.50;99.90;;;;;;4961469;28;20078;-75
2022/05/29 02:23:40;;;;;;;7.18;2.78;;;8.50;99.90;;;;;;4961289;28;20083;-75
2022/05/29 02:26:12;;;;;;;8.30;2.65;;;8.50;99.90;;;;;;4959337;28;20043;-74
2022/05/29 02:28:43;;;;;;;9.68;2.78;;;8.50;99.90;;;;;;4960328;29;20055;-76
2022/05/29 02:31:21;;;;;;;6.75;2.70;;;8.50;99.90;;;;;;4961694;28;20063;-74
2022/05/29 02:34:15;;;;;;;7.90;2.55;;;8.60;99.90;;;;;;4992572;28;20058;-74
2022/05/29 02:36:51;;;;;;;7.75;2.60;;;8.60;99.90;;;;;;4976270;28;20069;-73
2022/05/29 02:39:28;;;;;;;8.68;3.70;;;8.60;99.90;;;;;;4961259;28;20054;-74
2022/05/29 02:42:25;;;;;;;8.95;2.78;;;8.70;99.90;;;;;;5002472;28;20101;-76
2022/05/29 02:45:19;;;;;;;6.57;2.47;;;8.70;99.90;;;;;;4978664;28;20061;-75
2022/05/29 02:48:21;;;;;;;6.50;2.35;;;8.70;99.90;;;;;;4979142;28;20532;-74
2022/05/29 02:51:07;;;;;;;6.40;2.60;;;8.70;99.90;;;;;;4995379;28;20057;-76
2022/05/29 02:53:33;;;;;;;6.40;2.75;;;8.60;99.90;;;;;;4978931;28;20053;-75
2022/05/29 02:56:03;;;;;;;8.75;2.72;;;8.60;99.90;;;;;;4994761;28;20047;-75
2022/05/29 02:58:31;;;;;;;9.18;2.90;;;8.60;99.90;;;;;;4979179;28;20047;-75
2022/05/29 03:01:16;;;;;;;9.88;2.95;;;8.60;99.90;;;;;;4995049;28;20043;-76
2022/05/29 03:03:58;;;;;;;6.97;2.78;;;8.60;99.90;;;;;;4995038;28;20058;-74
2022/05/29 03:06:37;;;;;;;7.18;2.78;;;8.60;99.90;;;;;;4995590;28;20062;-75
2022/05/29 03:09:20;;;;;;;6.95;2.78;;;8.60;99.90;;;;;;4994601;28;20114;-77
2022/05/29 03:11:46;;;;;;;9.55;3.00;;;8.60;99.90;;;;;;4979121;28;20051;-76
2022/05/29 03:14:12;;;;;;;9.35;3.25;;;8.60;99.90;;;;;;4979147;28;20066;-76
2022/05/29 03:17:06;;;;;;;6.63;2.78;;;8.60;99.90;;;;;;4978723;28;20050;-75
2022/05/29 03:19:39;;;;;;;6.22;2.90;;;8.60;99.90;;;;;;4979072;28;20071;-76
2022/05/29 03:22:23;;;;;;;7.43;2.53;;;8.60;99.90;;;;;;4978134;28;20051;-77
2022/05/29 03:24:57;;;;;;;8.38;2.88;;;8.50;99.90;;;;;;4978868;28;20303;-75
2022/05/29 03:27:36;;;;;;;8.57;3.00;;;8.50;99.90;;;;;;4978615;28;20097;-75
2022/05/29 03:30:08;;;;;;;13.20;2.80;;;8.60;99.90;;;;;;4994383;28;20062;-76
2022/05/29 03:32:35;;;;;;;5.85;2.40;;;8.60;99.90;;;;;;4978819;28;20483;-76
2022/05/29 03:35:30;;;;;;;8.98;3.60;;;8.60;99.90;;;;;;4995060;28;20047;-75
2022/05/29 03:37:57;;;;;;;6.63;2.72;;;8.60;99.90;;;;;;4996474;28;20069;-77
2022/05/29 03:40:28;;;;;;;7.40;2.83;;;8.60;99.90;;;;;;4998985;28;20114;-77
2022/05/29 03:42:55;;;;;;;9.85;3.38;;;8.60;99.90;;;;;;4981679;28;20051;-76
2022/05/29 03:45:21;;;;;;;7.93;2.70;;;8.60;99.90;;;;;;4981559;28;20051;-76
2022/05/29 03:47:47;;;;;;;6.25;3.22;;;8.60;99.90;;;;;;4997681;28;20085;-75
2022/05/29 03:50:16;;;;;;;6.97;2.50;;;8.60;99.90;;;;;;4997733;28;20059;-74
2022/05/29 03:52:42;;;;;;;7.15;3.38;;;8.60;99.90;;;;;;4982030;28;20046;-77
2022/05/29 03:55:08;;;;;;;6.97;2.90;;;8.70;99.90;;;;;;4965878;28;20047;-76
2022/05/29 03:57:34;;;;;;;8.10;2.75;;;8.70;99.90;;;;;;4982506;28;20049;-77
2022/05/29 04:00:00;;;;;;;8.63;2.97;;;8.70;99.90;;;;;;4997831;28;20138;-77
2022/05/29 04:02:26;;;;;;;8.18;3.42;;;8.70;99.90;;;;;;4998563;28;20043;-79
2022/05/29 04:04:52;;;;;;;5.68;2.47;;;8.70;99.90;;;;;;4998359;28;20057;-78
2022/05/29 04:07:18;;;;;;;7.00;2.90;;;8.70;99.90;;;;;;4965647;28;20039;-76
2022/05/29 04:12:29;;;;;;;5.75;2.40;;;8.70;99.90;;;;;;4981591;28;20047;-80
2022/05/29 04:14:55;;;;;;;8.02;2.58;;;8.70;99.90;;;;;;4982179;28;20047;-79
2022/05/29 04:17:21;;;;;;;10.63;2.97;;;8.80;99.90;;;;;;4998133;28;20058;-78
2022/05/29 04:19:46;;;;;;;7.47;2.67;;;8.80;99.90;;;;;;4998264;28;20137;-76
2022/05/29 04:22:22;;;;;;;5.13;2.60;;;8.80;99.90;;;;;;4965261;28;20125;-78
2022/05/29 04:24:48;;;;;;;5.80;2.25;;;8.80;99.90;;;;;;4982027;28;20086;-78
2022/05/29 04:27:15;;;;;;;4.80;2.25;;;8.80;99.90;;;;;;4981822;28;20058;-75
2022/05/29 04:29:42;;;;;;;6.65;2.38;;;8.90;99.90;;;;;;4981120;28;20046;-76
2022/05/29 04:34:57;;;;;;;9.63;2.20;;;8.90;99.90;;;;;;4981656;28;20474;-76
2022/05/29 04:37:24;;;;;;;8.00;2.00;;;9.00;99.90;;;;;;4965702;28;20090;-74
2022/05/29 04:39:50;;;;;;;6.38;2.13;;;9.00;99.90;;;;;;4997809;28;20125;-77
2022/05/29 04:42:15;;;;;;;8.32;2.10;;;9.00;99.90;;;;;;4997642;28;20054;-77
2022/05/29 04:44:41;;;;;;;5.15;2.20;;;9.00;99.90;;;;;;4981509;28;20042;-74
2022/05/29 04:47:07;;;;;;;5.75;2.20;;;9.00;99.90;;;;;;4980695;28;20589;-78
2022/05/29 04:49:35;;;;;;;4.50;2.05;;;9.10;99.90;;;;;;4996333;28;20046;-77
2022/05/29 04:52:01;;;;;;;6.53;2.10;;;9.10;99.90;;;;;;4996521;28;20043;-76
2022/05/29 04:54:26;;;;;;;5.47;2.38;;;9.10;99.90;;;;;;4982606;28;20057;-78
2022/05/29 04:56:52;;;;;;;7.45;2.58;;;9.10;99.90;;;;;;4997845;28;20058;-79
2022/05/29 04:59:18;;;;;;;9.55;2.25;;;9.10;99.90;;;;;;4996966;28;20082;-76
2022/05/29 05:01:43;;;;;;;5.18;2.38;;;9.10;99.90;;;;;;4965253;28;20070;-76
2022/05/29 05:04:09;;;;;;;6.30;2.17;;;9.10;99.90;;;;;;4980657;28;20046;-74
2022/05/29 05:06:35;;;;;;;5.18;2.20;;;9.20;99.90;;;;;;4980964;28;20113;-74
2022/05/29 05:09:01;;;;;;;8.25;2.60;;;9.20;99.90;;;;;;4980706;28;20074;-76
2022/05/29 05:11:27;;;;;;;4.85;2.45;;;9.20;99.90;;;;;;4980979;28;20054;-74
2022/05/29 05:13:52;;;;;;;7.35;2.08;;;9.20;99.90;;;;;;4997230;28;20109;-75
2022/05/29 05:16:18;;;;;;;7.95;2.72;;;9.20;99.90;;;;;;4980860;28;20094;-78
2022/05/29 05:18:44;;;;;;;4.63;2.15;;;9.30;99.90;;;;;;4980471;28;20118;-77
2022/05/29 05:21:10;;;;;;;4.93;2.08;;;9.30;99.90;;;;;;4996358;28;20075;-74
2022/05/29 05:23:36;;;;;;;6.75;2.00;;;9.40;99.90;;;;;;4996768;28;20054;-77
2022/05/29 05:26:09;;;;;;;4.32;1.90;;;9.40;99.90;;;;;;4980431;28;20509;-74
2022/05/29 05:28:35;;;;;;;7.47;2.40;;;9.40;99.90;;;;;;4996744;28;20662;-75
2022/05/29 05:31:01;;;;;;;7.72;2.28;;;9.50;99.90;;;;;;4964374;28;20043;-76
2022/05/29 05:33:27;;;;;;;7.72;2.10;;;9.50;99.90;;;;;;4996643;28;20051;-76
2022/05/29 05:35:52;;;;;;;9.45;1.92;;;9.50;99.90;;;;;;4964532;28;20047;-76
2022/05/29 05:38:18;;;;;;;9.38;2.40;;;9.50;99.90;;;;;;4981731;28;20109;-75
2022/05/29 05:40:44;;;;;;;6.57;1.65;;;9.50;99.90;;;;;;4996628;28;20043;-74
2022/05/29 05:43:09;;;;;;;5.38;1.75;;;9.40;99.90;;;;;;4979761;28;20506;-75
2022/05/29 05:45:39;;;;;;;6.32;2.42;;;9.50;99.90;;;;;;4980443;28;20046;-76
2022/05/29 05:48:05;;;;;;;5.88;1.75;;;9.50;99.90;;;;;;4996514;28;20527;-76
2022/05/29 05:50:31;;;;;;;5.10;1.67;;;9.50;99.90;;;;;;4996101;28;20053;-75
2022/05/29 05:52:57;;;;;;;5.28;1.98;;;9.50;99.90;;;;;;4964144;28;20058;-77
2022/05/29 05:55:22;;;;;;;6.57;2.00;;;9.40;99.90;;;;;;4996262;28;20449;-76
2022/05/29 05:57:48;;;;;;;6.28;1.95;;;9.50;99.90;;;;;;4964289;28;20059;-78
2022/05/29 06:00:15;;;;;;;7.93;1.80;;;9.50;99.90;;;;;;4978808;28;20133;-76
2022/05/29 06:02:42;;;;;;;3.88;1.30;;;9.50;99.90;;;;;;4980253;28;20054;-77
2022/05/29 06:05:10;;;;;;;8.25;1.80;;;9.60;99.90;;;;;;4996182;28;20055;-75
2022/05/29 06:07:36;;;;;;;6.72;1.55;;;9.60;99.90;;;;;;4979597;28;20054;-78
2022/05/29 06:10:02;;;;;;;4.53;1.42;;;9.70;99.90;;;;;;4948120;28;20073;-80
2022/05/29 06:12:28;;;;;;;5.88;1.80;;;9.70;99.90;;;;;;4979569;28;20042;-77
2022/05/29 06:14:54;;;;;;;9.75;2.25;;;9.80;99.90;;;;;;4979890;28;20049;-75
2022/05/29 06:17:20;;;;;;;5.70;1.90;;;9.80;99.90;;;;;;4995380;28;20102;-77
2022/05/29 06:19:46;;;;;;;7.07;1.65;;;9.80;99.90;;;;;;4995788;28;20062;-75
2022/05/29 06:22:12;;;;;;;5.50;1.65;;;9.90;99.90;;;;;;4995524;28;20057;-76
2022/05/29 06:24:38;;;;;;;8.25;2.10;;;9.90;99.90;;;;;;4995772;28;20058;-77
2022/05/29 06:27:04;;;;;;;7.28;2.20;;;10.00;99.90;;;;;;4979870;28;20078;-78
2022/05/29 06:29:30;;;;;;;4.85;1.70;;;10.00;99.90;;;;;;4995366;28;20872;-76
2022/05/29 06:32:00;;;;;;;4.45;2.00;;;10.00;99.90;;;;;;4979803;28;20057;-76
2022/05/29 06:34:26;;;;;;;5.65;1.95;;;10.00;99.90;;;;;;4995150;28;20054;-74
2022/05/29 06:36:52;;;;;;;7.22;1.70;;;10.00;99.90;;;;;;4995659;28;20110;-77
2022/05/29 06:39:18;;;;;;;6.40;1.75;;;10.00;99.90;;;;;;4979326;28;20047;-77
2022/05/29 06:41:44;;;;;;;7.40;2.17;;;9.90;99.90;;;;;;4995568;28;20054;-75
2022/05/29 06:44:10;;;;;;;6.03;1.80;;;9.80;99.90;;;;;;4963423;28;20050;-73
2022/05/29 06:46:36;;;;;;;6.13;1.83;;;9.80;99.90;;;;;;4995196;28;20049;-74
2022/05/29 06:49:01;;;;;;;7.38;1.90;;;9.80;99.90;;;;;;4995548;28;20086;-77
2022/05/29 06:51:27;;;;;;;6.30;2.25;;;9.80;99.90;;;;;;4995293;28;20058;-75
2022/05/29 06:53:56;;;;;;;5.15;1.80;;;9.70;99.90;;;;;;4978937;28;20051;-74
2022/05/29 06:56:23;;;;;;;7.00;2.20;;;9.70;99.90;;;;;;4979101;28;20435;-77
2022/05/29 06:58:49;;;;;;;6.22;1.85;;;9.60;99.90;;;;;;4995366;28;20050;-79
2022/05/29 07:06:59;;;;;;;9.65;1.92;;;9.70;99.90;;;;;;4980589;28;20067;-74
2022/05/29 07:09:32;;;;;;;12.65;2.10;;;9.90;99.90;;;;;;4994233;28;20054;-75
2022/05/29 07:12:11;;;;;;;5.70;1.90;;;9.90;99.90;;;;;;4982319;28;20047;-75
2022/05/29 07:14:40;;;;;;;4.50;1.80;;;10.00;99.90;;;;;;4985201;28;20055;-77
2022/05/29 07:17:06;;;;;;;4.85;1.73;;;10.10;99.90;;;;;;5001431;28;20054;-74
2022/05/29 07:19:34;;;;;;;7.88;1.80;;;10.20;99.90;;;;;;4986711;28;20062;-75
2022/05/29 07:22:00;;;;;;;11.57;2.17;;;10.30;99.90;;;;;;4986454;28;20051;-75
2022/05/29 07:24:28;;;;;;;6.15;1.85;;;10.30;99.90;;;;;;4985227;28;20102;-75
2022/05/29 07:26:54;;;;;;;6.03;1.80;;;10.40;99.90;;;;;;4983325;28;20043;-78
2022/05/29 07:29:21;;;;;;;9.30;2.00;;;10.40;99.90;;;;;;5000447;28;20109;-72
2022/05/29 07:31:48;;;;;;;4.68;1.75;;;10.50;99.90;;;;;;4998777;28;20046;-77
2022/05/29 07:34:13;;;;;;;7.53;1.92;;;10.50;99.90;;;;;;5000251;28;20050;-76
2022/05/29 07:36:39;;;;;;;4.55;1.75;;;10.60;99.90;;;;;;4984714;28;20047;-78
2022/05/29 07:39:05;;;;;;;11.50;3.28;;;10.60;99.90;;;;;;4984107;28;20054;-76
2022/05/29 07:44:15;;;;;;;6.22;1.90;;;10.70;99.90;;;;;;4985093;28;20503;-78
2022/05/29 07:46:41;;;;;;;6.20;1.52;;;10.70;99.90;;;;;;5001173;28;20130;-79
2022/05/29 07:49:07;;;;;;;7.25;1.40;;;10.70;99.90;;;;;;4984595;28;20082;-76
2022/05/29 07:51:33;;;;;;;10.63;3.05;;;10.70;99.90;;;;;;5000492;28;20059;-76
2022/05/29 07:53:59;;;;;;;7.97;2.70;;;10.80;99.90;;;;;;4984604;28;20038;-76
2022/05/29 07:56:28;;;;;;;5.72;2.03;;;10.80;99.90;;;;;;4984311;28;20108;-76
2022/05/29 07:58:54;;;;;;;6.85;2.13;;;10.80;99.90;;;;;;4984367;28;20430;-76
2022/05/29 08:01:19;;;;;;;4.57;1.95;;;10.80;99.90;;;;;;4984791;28;20050;-82
2022/05/29 08:03:46;;;;;;;7.95;1.80;;;10.80;99.90;;;;;;4984438;28;20054;-74
2022/05/29 08:06:12;;;;;;;6.13;1.65;;;10.80;99.90;;;;;;4984207;28;20043;-75
2022/05/29 08:08:38;;;;;;;7.15;1.50;;;10.70;99.90;;;;;;4983081;28;20050;-77
2022/05/29 08:11:05;;;;;;;7.30;1.70;;;10.80;99.90;;;;;;4983423;28;20046;-76
2022/05/29 08:13:32;;;;;;;4.88;1.98;;;10.80;99.90;;;;;;4999622;28;20043;-75
2022/05/29 08:15:58;;;;;;;5.45;1.70;;;10.80;99.90;;;;;;4968894;28;20057;-77
2022/05/29 08:18:25;;;;;;;8.45;1.73;;;10.90;99.90;;;;;;5000552;28;20474;-76
2022/05/29 08:20:52;;;;;;;5.28;1.60;;;10.90;99.90;;;;;;4984881;28;20110;-75
2022/05/29 08:23:18;;;;;;;4.72;1.75;;;10.90;99.90;;;;;;4982265;28;20082;-80
2022/05/29 08:30:37;;;;;;;6.72;1.60;;;11.00;99.90;;;;;;4981049;28;20078;-76
2022/05/29 08:31:27;;;;;;;6.43;1.50;;;11.10;99.90;;;;;;4997773;28;20078;-77
2022/05/29 08:33:53;;;;;;;5.72;1.30;;;11.10;99.90;;;;;;4981289;28;20062;-77
2022/05/29 08:36:24;;;;;;;5.35;1.52;;;11.10;99.90;;;;;;4981670;28;20054;-76
2022/05/29 08:38:52;;;;;;;4.47;1.38;;;11.00;99.90;;;;;;4980797;28;20054;-74
2022/05/29 08:41:46;;;;;;;3.97;1.30;;;10.90;99.90;;;;;;4981450;28;20055;-75
2022/05/29 08:44:23;;;;;;;4.25;1.20;;;10.90;99.90;;;;;;4985652;28;20089;-76
2022/05/29 08:46:52;;;;;;;2.95;1.65;;;10.80;99.90;;;;;;4981123;28;20084;-73
2022/05/29 08:49:30;;;;;;;8.82;1.27;;;10.80;99.90;;;;;;4997005;28;20057;-74
2022/05/29 08:52:22;;;;;;;4.85;1.52;;;10.90;99.90;;;;;;4980861;28;20075;-76
2022/05/29 08:54:53;;;;;;;2.60;0.90;;;11.00;99.90;;;;;;4979953;28;20100;-77
2022/05/29 08:57:33;;;;;;;6.65;1.15;;;11.10;99.90;;;;;;4981446;28;20054;-75
2022/05/29 09:00:05;;;;;;;3.42;0.98;;;11.20;99.90;;;;;;4979669;28;20051;-76
2022/05/29 09:02:35;;;;;;;6.18;1.00;;;11.30;99.90;;;;;;4964422;28;20546;-76
2022/05/29 09:05:24;;;;;;;3.03;1.00;;;11.40;99.90;;;;;;4997017;28;20085;-76
2022/05/29 09:07:53;;;;;;;4.57;0.93;;;12.30;99.90;;;;;;4962053;28;20074;-77
2022/05/29 09:10:28;;;;;;;4.32;1.20;;;11.50;99.90;;;;;;4980097;28;20086;-74
2022/05/29 09:12:56;;;;;;;4.47;1.63;;;11.50;99.90;;;;;;4980055;28;20042;-73
2022/05/29 09:15:28;;;;;;;5.05;1.15;;;11.50;99.90;;;;;;4980845;28;20278;-76
2022/05/29 09:17:59;;;;;;;3.97;1.20;;;11.50;99.90;;;;;;4980111;28;20049;-76
2022/05/29 09:20:36;;;;;;;7.15;1.20;;;11.50;99.90;;;;;;4980296;28;20051;-77
2022/05/29 09:23:06;;;;;;;4.53;1.02;;;11.50;99.90;;;;;;4980561;28;20111;-74
2022/05/29 09:25:38;;;;;;;4.65;1.50;;;11.40;99.90;;;;;;4981621;28;20050;-76
2022/05/29 09:28:38;;;;;;;4.15;1.05;;;11.30;99.90;;;;;;4980649;28;20439;-75
2022/05/29 09:31:14;;;;;;;3.13;1.20;;;11.20;99.90;;;;;;4980676;28;20054;-76
2022/05/29 09:33:40;;;;;;;3.47;0.98;;;11.10;99.90;;;;;;4980361;28;20047;-76
2022/05/29 09:36:44;;;;;;;3.08;0.80;;;11.20;99.90;;;;;;4979297;28;20053;-77
2022/05/29 09:39:30;;;;;;;3.20;1.05;;;11.30;99.90;;;;;;4980152;28;20055;-75
2022/05/29 09:42:14;;;;;;;4.50;0.80;;;11.30;99.90;;;;;;4979566;28;20080;-74
2022/05/29 09:45:15;;;;;;;1.58;0.80;;;11.30;99.90;;;;;;4980589;28;20043;-78
2022/05/29 09:50:46;;;;;;;4.72;0.90;;;11.10;99.90;;;;;;4979679;28;20059;-75
2022/05/29 09:53:46;;;;;;;6.28;1.08;;;11.00;99.90;;;;;;4979617;28;20065;-75
2022/05/29 09:56:13;;;;;;;3.58;0.98;;;11.00;99.90;;;;;;4980922;28;20050;-75
2022/05/29 09:58:44;;;;;;;4.30;1.38;;;11.00;99.90;;;;;;4979708;28;20058;-75
2022/05/29 10:01:10;;;;;;;2.72;0.93;;;11.10;99.90;;;;;;4980197;28;20054;-76
2022/05/29 10:03:43;;;;;;;5.20;1.02;;;11.20;99.90;;;;;;4979609;28;20101;-74
2022/05/29 10:06:21;;;;;;;2.47;0.90;;;11.30;99.90;;;;;;4979916;28;20480;-75
2022/05/29 10:08:47;;;;;;;3.15;1.15;;;11.30;99.90;;;;;;4963224;28;20106;-75
2022/05/29 10:11:19;;;;;;;5.10;1.10;;;11.30;99.90;;;;;;4979251;28;20514;-77
2022/05/29 10:13:46;;;;;;;2.40;1.10;;;11.40;99.90;;;;;;4979721;28;20065;-77
2022/05/29 10:16:28;;;;;;;2.83;1.08;;;11.40;99.90;;;;;;4979739;28;20047;-74
2022/05/29 10:18:53;;;;;;;4.70;1.33;;;11.30;99.90;;;;;;4979179;28;20046;-77
2022/05/29 10:21:27;;;;;;;3.47;1.20;;;11.30;99.90;;;;;;4978752;28;20065;-75
2022/05/29 10:24:20;;;;;;;4.10;0.93;;;11.30;99.90;;;;;;4995635;28;20057;-76
2022/05/29 10:26:53;;;;;;;5.30;1.10;;;11.30;99.90;;;;;;4979637;28;20078;-74
2022/05/29 10:29:39;;;;;;;3.53;1.10;;;11.30;99.90;;;;;;4979210;28;20050;-76
2022/05/29 10:32:07;;;;;;;5.82;1.33;;;11.30;99.90;;;;;;4979228;28;20082;-74
2022/05/29 10:34:37;;;;;;;3.15;1.00;;;11.30;99.90;;;;;;4979117;28;20050;-78
2022/05/29 10:37:53;;;;;;;3.60;1.05;;;11.30;99.90;;;;;;4978890;28;20085;-77
2022/05/29 10:40:19;;;;;;;3.17;1.10;;;11.40;99.90;;;;;;4974723;28;20606;-76
2022/05/29 10:42:49;;;;;;;3.10;0.90;;;11.50;99.90;;;;;;4978358;28;20085;-76
2022/05/29 10:45:25;;;;;;;4.38;0.88;;;11.40;99.90;;;;;;4995664;28;20046;-75
2022/05/29 10:48:02;;;;;;;2.05;1.15;;;11.40;99.90;;;;;;4994819;28;20050;-75
2022/05/29 10:50:59;;;;;;;5.00;1.17;;;11.30;99.90;;;;;;4995069;28;20487;-74
2022/05/29 10:53:38;;;;;;;7.38;1.15;;;11.30;99.90;;;;;;4992887;28;20057;-76
2022/05/29 10:56:37;;;;;;;4.20;1.00;;;11.30;99.90;;;;;;4975915;28;20062;-75
2022/05/29 10:59:34;;;;;;;3.28;1.10;;;11.30;99.90;;;;;;4993482;28;20069;-75
2022/05/29 11:05:08;;;;;;;4.10;1.88;;;11.10;99.90;;;;;;4994266;28;20047;-75
2022/05/29 11:07:58;;;;;;;4.63;1.00;;;11.10;99.90;;;;;;4993092;28;20054;-76
2022/05/29 11:11:01;;;;;;;4.03;1.20;;;11.10;99.90;;;;;;4977734;28;20049;-75
2022/05/29 11:13:48;;;;;;;1.92;0.90;;;11.20;99.90;;;;;;4994855;28;20054;-77
2022/05/29 11:16:39;;;;;;;5.45;1.20;;;11.30;99.90;;;;;;4993633;28;20050;-75
2022/05/29 11:19:23;;;;;;;4.82;1.35;;;11.40;99.90;;;;;;4994154;28;20067;-75
2022/05/29 11:22:21;;;;;;;4.25;1.17;;;11.50;99.90;;;;;;4975952;28;20514;-74
2022/05/29 11:25:25;;;;;;;3.65;1.48;;;11.60;99.90;;;;;;4971398;28;20098;-74
2022/05/29 11:27:57;;;;;;;4.50;1.00;;;11.70;99.90;;;;;;4935908;29;20102;-74
2022/05/29 11:30:32;;;;;;;5.47;1.20;;;11.70;99.90;;;;;;4971575;28;20063;-74
2022/05/29 11:33:30;;;;;;;5.25;1.38;;;11.80;99.90;;;;;;4994280;28;20070;-75
2022/05/29 11:36:02;;;;;;;3.22;1.67;;;11.70;99.90;;;;;;4992619;28;20047;-78
2022/05/29 11:38:52;;;;;;;3.00;0.98;;;11.70;99.90;;;;;;4978197;28;20055;-75
2022/05/29 11:41:26;;;;;;;4.65;1.00;;;11.60;99.90;;;;;;4971084;28;20055;-77
2022/05/29 11:44:30;;;;;;;3.15;1.10;;;11.60;99.90;;;;;;4972676;28;20061;-75
2022/05/29 11:53:07;;;;;;;2.75;1.00;;;11.60;99.90;;;;;;4977801;28;20047;-76
2022/05/29 11:55:40;;;;;;;5.03;1.20;;;11.60;99.90;;;;;;4976922;28;20159;-75
2022/05/29 11:58:24;;;;;;;4.07;1.02;;;11.70;99.90;;;;;;4980524;28;20051;-75
2022/05/29 12:01:01;;;;;;;8.15;1.30;;;11.80;99.90;;;;;;4983569;28;20062;-75
2022/05/29 12:03:43;;;;;;;2.50;0.90;;;11.90;99.90;;;;;;4983284;28;20053;-74
2022/05/29 12:06:30;;;;;;;5.85;1.10;;;12.10;99.90;;;;;;4981970;28;20159;-73
2022/05/29 12:08:59;;;;;;;;;;;12.20;99.90;;;;;;4966472;28;20751;-75
2022/05/29 12:11:39;;;;;;;4.22;1.10;;;12.20;99.90;;;;;;4998203;28;19926;-74
2022/05/29 12:14:21;;;;;;;2.78;1.10;;;12.30;99.90;;;;;;4981997;28;20063;-74
2022/05/29 12:16:50;;;;;;;4.03;0.82;;;12.30;99.90;;;;;;4981253;28;20189;-74
2022/05/29 12:19:42;;;;;;;3.67;1.25;;;12.30;99.90;;;;;;4981482;28;20057;-73
2022/05/29 12:22:09;;;;;;;4.85;1.13;;;12.10;99.90;;;;;;4981464;28;20514;-73
2022/05/29 12:24:41;;;;;;;4.70;1.10;;;12.00;99.90;;;;;;4982292;28;20442;-75
2022/05/29 12:27:11;;;;;;;4.00;0.90;;;11.90;99.90;;;;;;4981937;28;20047;-73
2022/05/29 12:30:14;;;;;;;2.53;1.00;;;11.70;99.90;;;;;;4997497;28;20131;-75
2022/05/29 12:32:40;;;;;;;5.07;1.10;;;11.60;99.90;;;;;;4997786;28;20062;-76
2022/05/29 12:35:15;;;;;;;4.55;1.25;;;11.60;99.90;;;;;;4965336;28;20196;-79
2022/05/29 12:38:02;;;;;;;3.08;0.80;;;11.60;99.90;;;;;;4982814;28;20053;-75
2022/05/29 12:40:34;;;;;;;3.78;0.88;;;11.70;99.90;;;;;;4981767;28;20046;-76
2022/05/29 12:43:28;;;;;;;5.95;1.08;;;11.70;99.90;;;;;;4967024;28;20047;-75
2022/05/29 12:46:06;;;;;;;3.55;1.35;;;11.80;99.90;;;;;;4981744;28;20077;-76
2022/05/29 12:48:37;;;;;;;5.38;1.33;;;11.80;99.90;;;;;;4981674;28;20046;-78
2022/05/29 12:51:16;;;;;;;5.95;1.52;;;11.80;99.90;;;;;;4980938;28;20567;-74
2022/05/29 12:54:21;;;;;;;3.55;1.55;;;11.90;99.90;;;;;;4981299;28;20058;-75
2022/05/29 12:57:30;;;;;;;2.53;0.90;;;11.90;99.90;;;;;;4966098;28;20132;-75
2022/05/29 13:00:21;;;;;;;4.50;1.50;;;12.00;99.90;;;;;;4996799;28;20051;-75
2022/05/29 13:03:15;;;;;;;5.07;1.30;;;12.10;99.90;;;;;;4997010;28;20105;-75
2022/05/29 13:05:47;;;;;;;3.33;1.08;;;12.10;99.90;;;;;;4981200;28;20054;-74
2022/05/29 13:08:34;;;;;;;5.13;1.45;;;12.30;99.90;;;;;;4996878;28;20046;-75
2022/05/29 13:11:00;;;;;;;1.95;0.80;;;12.40;99.90;;;;;;4980314;28;20039;-75
2022/05/29 13:13:43;;;;;;;4.13;1.08;;;12.40;99.90;;;;;;4980788;28;20042;-74
2022/05/29 13:16:18;;;;;;;6.05;1.23;;;12.50;99.90;;;;;;4982371;28;20122;-74
2022/05/29 13:19:14;;;;;;;5.50;1.10;;;12.40;99.90;;;;;;4981794;28;20366;-74
2022/05/29 13:22:00;;;;;;;4.43;1.08;;;12.40;99.90;;;;;;4980435;28;20094;-74
2022/05/29 13:24:36;;;;;;;3.80;1.10;;;12.30;99.90;;;;;;4979994;28;20054;-74
2022/05/29 13:27:17;;;;;;;5.40;1.35;;;12.20;99.90;;;;;;4996909;28;20103;-74
2022/05/29 13:29:47;;;;;;;6.43;1.55;;;12.10;99.90;;;;;;4981609;28;20415;-75
2022/05/29 13:32:12;;;;;;;4.57;1.52;;;12.10;99.90;;;;;;4980591;28;20531;-75
2022/05/29 13:34:48;;;;;;;5.80;1.40;;;11.90;99.90;;;;;;4980197;28;20053;-74
2022/05/29 13:37:39;;;;;;;2.22;1.10;;;11.70;99.90;;;;;;4980722;28;20054;-76
2022/05/29 13:40:29;;;;;;;4.53;1.17;;;11.60;99.90;;;;;;4980329;28;20102;-75
2022/05/29 13:43:15;;;;;;;5.30;1.35;;;11.40;99.90;;;;;;4980343;28;20050;-76
2022/05/29 13:45:44;;;;;;;2.70;1.30;;;11.30;99.90;;;;;;4964573;28;20062;-76
2022/05/29 13:48:29;;;;;;;6.57;1.25;;;11.30;99.90;;;;;;4981598;28;20092;-77
2022/05/29 13:51:02;;;;;;;4.57;1.40;;;11.30;99.90;;;;;;4979984;28;20042;-73
2022/05/29 13:53:32;;;;;;;5.10;1.23;;;11.20;99.90;;;;;;4979990;28;20043;-76
2022/05/29 13:56:00;;;;;;;2.15;1.20;;;11.30;99.90;;;;;;4979462;28;20074;-74